createdAt,value
2019-02-12T00:00:40.445Z,55.00
2019-02-12T00:03:12.317Z,55.00
2019-02-12T00:05:44.197Z,55.10
2019-02-12T00:08:16.268Z,55.20
2019-02-12T00:10:48.284Z,55.10
2019-02-12T00:13:20.331Z,55.20
2019-02-12T00:15:52.201Z,55.30
2019-02-12T00:18:25.274Z,55.20
2019-02-12T00:20:57.116Z,55.20
2019-02-12T00:23:29.041Z,55.20
2019-02-12T00:26:01.129Z,55.20
2019-02-12T00:28:33.102Z,55.90
2019-02-12T00:31:04.943Z,55.40
2019-02-12T00:33:36.853Z,55.30
2019-02-12T00:36:10.000Z,55.40
2019-02-12T00:38:42.153Z,55.40
2019-02-12T00:41:14.090Z,55.50
2019-02-12T00:43:46.299Z,55.50
2019-02-12T00:46:18.165Z,55.60
2019-02-12T00:48:49.980Z,55.70
2019-02-12T00:51:21.798Z,55.80
2019-02-12T00:53:53.899Z,55.80
2019-02-12T00:56:25.686Z,55.90
2019-02-12T00:58:57.630Z,56.00
2019-02-12T01:01:29.405Z,56.00
2019-02-12T01:04:01.570Z,55.90
2019-02-12T01:06:38.145Z,56.50
2019-02-12T01:09:10.216Z,55.80
2019-02-12T01:11:42.107Z,55.80
2019-02-12T01:14:13.940Z,55.80
2019-02-12T01:16:45.781Z,55.90
2019-02-12T01:19:17.732Z,55.80
2019-02-12T01:21:49.705Z,55.80
2019-02-12T01:24:21.600Z,55.80
2019-02-12T01:26:53.493Z,55.80
2019-02-12T01:29:25.347Z,55.90
2019-02-12T01:31:57.131Z,55.90
2019-02-12T01:34:30.243Z,55.70
2019-02-12T01:37:02.354Z,55.70
2019-02-12T01:39:34.394Z,55.60
2019-02-12T01:42:06.215Z,55.60
2019-02-12T01:44:37.988Z,55.50
2019-02-12T01:47:10.008Z,55.50
2019-02-12T01:49:41.824Z,55.60
2019-02-12T01:52:13.724Z,55.70
2019-02-12T01:54:45.663Z,55.70
2019-02-12T01:57:17.495Z,55.50
2019-02-12T01:59:49.378Z,55.60
2019-02-12T02:02:21.202Z,55.80
2019-02-12T02:04:53.027Z,55.80
2019-02-12T02:07:24.859Z,56.00
2019-02-12T02:09:56.662Z,56.10
2019-02-12T02:12:28.505Z,56.30
2019-02-12T02:15:00.364Z,56.40
2019-02-12T02:17:32.181Z,56.60
2019-02-12T02:20:05.674Z,56.60
2019-02-12T02:22:37.469Z,56.50
2019-02-12T02:25:10.783Z,56.60
2019-02-12T02:27:42.590Z,56.60
2019-02-12T02:30:15.699Z,56.60
2019-02-12T02:32:47.589Z,56.60
2019-02-12T02:35:19.402Z,56.60
2019-02-12T02:37:51.265Z,56.50
2019-02-12T02:40:23.083Z,56.60
2019-02-12T02:42:54.865Z,56.50
2019-02-12T02:45:26.708Z,56.50
2019-02-12T02:47:58.756Z,56.50
2019-02-12T02:50:30.693Z,56.50
2019-02-12T02:53:02.691Z,56.50
2019-02-12T02:55:34.506Z,56.60
2019-02-12T02:58:06.574Z,56.60
2019-02-12T03:00:38.368Z,56.60
2019-02-12T03:03:10.373Z,56.70
2019-02-12T03:05:42.201Z,56.80
2019-02-12T03:08:14.113Z,57.00
2019-02-12T03:10:45.899Z,57.20
2019-02-12T03:13:17.921Z,57.20
2019-02-12T03:15:49.869Z,57.30
2019-02-12T03:18:21.666Z,57.30
2019-02-12T03:20:53.555Z,57.80
2019-02-12T03:23:25.566Z,57.10
2019-02-12T03:25:57.647Z,57.10
2019-02-12T03:28:29.437Z,57.10
2019-02-12T03:31:01.397Z,57.20
2019-02-12T03:33:33.221Z,57.10
2019-02-12T03:36:05.176Z,57.10
2019-02-12T03:38:36.949Z,57.00
2019-02-12T03:41:08.965Z,57.10
2019-02-12T03:43:40.940Z,57.00
2019-02-12T03:46:12.942Z,57.00
2019-02-12T03:48:44.814Z,57.10
2019-02-12T03:51:16.604Z,57.20
2019-02-12T03:53:48.485Z,57.20
2019-02-12T03:56:20.289Z,57.10
2019-02-12T03:58:52.067Z,57.00
2019-02-12T04:01:23.879Z,57.10
2019-02-12T04:03:55.974Z,57.00
2019-02-12T04:06:28.044Z,57.10
2019-02-12T04:08:59.887Z,57.20
2019-02-12T04:11:31.755Z,57.30
2019-02-12T04:14:04.101Z,57.20
2019-02-12T04:16:47.149Z,57.40
2019-02-12T04:19:21.246Z,57.90
2019-02-12T04:21:53.052Z,57.60
2019-02-12T04:24:24.940Z,57.50
2019-02-12T04:26:56.721Z,57.40
2019-02-12T04:29:28.613Z,57.40
2019-02-12T04:32:00.628Z,57.60
2019-02-12T04:34:32.578Z,57.50
2019-02-12T04:37:04.671Z,58.10
2019-02-12T04:39:36.479Z,57.50
2019-02-12T04:42:08.465Z,57.50
2019-02-12T04:44:40.253Z,57.50
2019-02-12T04:47:13.610Z,57.60
2019-02-12T04:49:45.484Z,57.60
2019-02-12T04:52:17.373Z,57.60
2019-02-12T04:54:49.225Z,57.60
2019-02-12T04:57:21.052Z,57.60
2019-02-12T04:59:53.146Z,57.70
2019-02-12T05:02:24.948Z,57.70
2019-02-12T05:04:56.866Z,57.60
2019-02-12T05:07:28.780Z,57.70
2019-02-12T05:10:00.904Z,57.70
2019-02-12T05:12:32.764Z,57.70
2019-02-12T05:15:04.927Z,57.70
2019-02-12T05:17:36.758Z,57.70
2019-02-12T05:20:11.692Z,57.70
2019-02-12T05:22:44.037Z,57.70
2019-02-12T05:25:16.013Z,57.80
2019-02-12T05:27:47.850Z,57.90
2019-02-12T05:30:19.793Z,58.00
2019-02-12T05:32:51.759Z,57.90
2019-02-12T05:35:23.610Z,57.80
2019-02-12T05:37:55.403Z,57.90
2019-02-12T05:40:27.483Z,57.90
2019-02-12T05:42:59.401Z,57.90
2019-02-12T05:45:31.218Z,58.20
2019-02-12T05:48:03.166Z,57.90
2019-02-12T05:50:34.976Z,58.00
2019-02-12T05:53:06.920Z,58.00
2019-02-12T05:55:38.752Z,58.00
2019-02-12T05:58:10.667Z,58.00
2019-02-12T06:00:42.703Z,58.50
2019-02-12T06:03:14.708Z,58.00
2019-02-12T06:05:46.548Z,57.90
2019-02-12T06:08:18.542Z,58.00
2019-02-12T06:10:50.524Z,58.00
2019-02-12T06:13:22.342Z,57.90
2019-02-12T06:15:54.201Z,57.90
2019-02-12T06:18:26.021Z,58.00
2019-02-12T06:20:59.194Z,58.10
2019-02-12T06:23:31.150Z,58.30
2019-02-12T06:26:03.245Z,57.40
2019-02-12T06:28:36.463Z,58.30
2019-02-12T06:31:08.237Z,58.40
2019-02-12T06:33:40.102Z,58.30
2019-02-12T06:36:12.081Z,58.30
2019-02-12T06:38:43.986Z,58.40
2019-02-12T06:41:16.001Z,58.30
2019-02-12T06:43:47.968Z,58.40
2019-02-12T06:46:19.804Z,58.30
2019-02-12T06:48:51.596Z,58.60
2019-02-12T06:51:23.625Z,58.20
2019-02-12T06:53:55.467Z,58.30
2019-02-12T06:56:27.283Z,58.30
2019-02-12T06:58:59.450Z,58.40
2019-02-12T07:01:31.271Z,58.30
2019-02-12T07:04:14.430Z,59.20
2019-02-12T07:07:45.660Z,58.50
2019-02-12T07:10:25.281Z,58.40
2019-02-12T07:13:40.063Z,58.30
2019-02-12T07:17:36.260Z,58.40
2019-02-12T07:21:11.774Z,58.40
2019-02-12T07:24:22.823Z,58.30
2019-02-12T07:27:53.216Z,58.40
2019-02-12T07:31:34.584Z,58.40
2019-02-12T07:35:14.884Z,58.40
2019-02-12T07:38:00.555Z,58.40
2019-02-12T07:41:20.187Z,58.50
2019-02-12T07:44:24.196Z,58.60
2019-02-12T07:47:46.861Z,58.60
2019-02-12T07:51:26.690Z,58.60
2019-02-12T07:54:39.639Z,58.50
2019-02-12T07:58:04.425Z,58.40
2019-02-12T08:01:22.794Z,58.40
2019-02-12T08:04:43.274Z,58.30
2019-02-12T08:08:26.907Z,58.20
2019-02-12T08:12:07.866Z,58.20
2019-02-12T08:15:15.611Z,58.30
2019-02-12T08:19:04.802Z,58.40
2019-02-12T08:22:37.812Z,58.40
2019-02-12T08:25:25.687Z,58.30
2019-02-12T08:29:01.164Z,58.30
2019-02-12T08:32:50.841Z,58.40
2019-02-12T08:35:57.541Z,58.40
2019-02-12T08:39:50.327Z,58.30
2019-02-12T08:42:54.252Z,58.20
2019-02-12T08:46:35.331Z,58.10
2019-02-12T08:49:47.777Z,58.20
2019-02-12T08:53:23.635Z,58.40
2019-02-12T08:56:35.671Z,58.50
2019-02-12T09:00:09.808Z,58.70
2019-02-12T09:03:40.982Z,58.60
2019-02-12T09:07:12.227Z,58.80
2019-02-12T09:10:33.641Z,58.70
2019-02-12T09:13:57.984Z,58.60
2019-02-12T09:17:28.456Z,58.40
2019-02-12T09:20:49.994Z,58.40
2019-02-12T09:23:47.486Z,58.40
2019-02-12T09:27:05.513Z,58.50
2019-02-12T09:30:54.424Z,59.10
2019-02-12T09:34:21.238Z,59.10
2019-02-12T09:37:57.289Z,58.90
2019-02-12T09:41:12.096Z,58.80
2019-02-12T09:44:37.757Z,58.80
2019-02-12T09:47:48.709Z,58.70
2019-02-12T09:51:03.628Z,58.60
2019-02-12T09:54:15.967Z,58.70
2019-02-12T09:57:17.419Z,58.70
2019-02-12T10:00:25.817Z,58.70
2019-02-12T10:04:03.748Z,58.80
2019-02-12T10:07:38.752Z,59.00
2019-02-12T10:11:16.587Z,59.00
2019-02-12T10:14:44.684Z,59.10
2019-02-12T10:18:08.822Z,59.10
2019-02-12T10:21:55.997Z,59.20
2019-02-12T10:25:09.090Z,59.30
2019-02-12T10:28:48.765Z,59.30
2019-02-12T10:31:43.738Z,59.10
2019-02-12T10:34:19.427Z,58.60
2019-02-12T10:36:51.468Z,58.60
2019-02-12T10:39:23.368Z,58.40
2019-02-12T10:41:55.507Z,58.40
2019-02-12T10:44:27.457Z,57.80
2019-02-12T10:46:59.523Z,58.90
2019-02-12T10:49:32.710Z,58.20
2019-02-12T10:52:04.678Z,58.20
2019-02-12T10:54:36.754Z,58.20
2019-02-12T10:57:08.674Z,58.10
2019-02-12T10:59:40.497Z,58.60
2019-02-12T11:02:12.508Z,57.90
2019-02-12T11:04:44.359Z,57.90
2019-02-12T11:07:16.257Z,57.90
2019-02-12T11:09:48.185Z,57.90
2019-02-12T11:12:20.047Z,57.00
2019-02-12T11:14:51.853Z,57.00
2019-02-12T11:17:23.763Z,56.70
2019-02-12T11:19:55.653Z,56.80
2019-02-12T11:22:27.597Z,56.50
2019-02-12T11:24:59.407Z,56.60
2019-02-12T11:27:31.304Z,56.50
2019-02-12T11:30:03.421Z,57.00
2019-02-12T11:32:35.465Z,56.30
2019-02-12T11:35:08.428Z,56.30
2019-02-12T11:37:40.429Z,56.10
2019-02-12T11:40:13.443Z,56.00
2019-02-12T11:42:45.394Z,56.10
2019-02-12T11:45:17.432Z,56.00
2019-02-12T11:47:49.424Z,55.90
2019-02-12T11:50:21.462Z,56.10
2019-02-12T11:52:53.684Z,56.20
2019-02-12T11:55:25.854Z,56.00
2019-02-12T11:57:57.737Z,55.80
2019-02-12T12:00:35.412Z,55.70
2019-02-12T12:03:07.361Z,55.20
2019-02-12T12:05:39.184Z,54.90
2019-02-12T12:08:11.768Z,54.80
2019-02-12T12:10:43.611Z,54.60
2019-02-12T12:13:15.615Z,55.00
2019-02-12T12:15:48.589Z,54.30
2019-02-12T12:18:21.210Z,54.10
2019-02-12T12:20:53.069Z,54.00
2019-02-12T12:23:24.941Z,53.90
2019-02-12T12:25:56.738Z,53.60
2019-02-12T12:28:28.794Z,53.40
2019-02-12T12:31:00.761Z,53.20
2019-02-12T12:33:32.877Z,53.10
2019-02-12T12:36:04.920Z,52.90
2019-02-12T12:38:36.813Z,52.90
2019-02-12T12:41:08.657Z,52.80
2019-02-12T12:43:40.547Z,52.70
2019-02-12T12:46:12.634Z,52.60
2019-02-12T12:48:45.133Z,52.70
2019-02-12T12:51:16.994Z,52.60
2019-02-12T12:53:48.827Z,52.60
2019-02-12T12:56:20.816Z,52.60
2019-02-12T12:58:52.659Z,52.70
2019-02-12T13:01:24.580Z,52.70
2019-02-12T13:03:56.525Z,52.70
2019-02-12T13:06:28.607Z,53.40
2019-02-12T13:09:00.647Z,52.60
2019-02-12T13:11:32.678Z,52.70
2019-02-12T13:14:04.608Z,52.50
2019-02-12T13:16:36.467Z,52.50
2019-02-12T13:19:08.633Z,52.40
2019-02-12T13:21:44.221Z,52.60
2019-02-12T13:24:20.366Z,52.10
2019-02-12T13:26:52.445Z,52.50
2019-02-12T13:29:27.190Z,52.40
2019-02-12T13:31:59.122Z,52.40
2019-02-12T13:34:31.026Z,52.40
2019-02-12T13:37:04.312Z,52.50
2019-02-12T13:39:36.406Z,52.30
2019-02-12T13:42:08.671Z,52.50
2019-02-12T13:44:42.080Z,52.50
2019-02-12T13:47:13.992Z,52.60
2019-02-12T13:49:46.057Z,52.70
2019-02-12T13:52:19.298Z,52.70
2019-02-12T13:54:51.873Z,52.90
2019-02-12T13:57:23.896Z,52.70
2019-02-12T13:59:55.926Z,52.70
2019-02-12T14:02:27.796Z,52.60
2019-02-12T14:04:59.705Z,52.60
2019-02-12T14:07:31.642Z,52.60
2019-02-12T14:10:06.377Z,52.60
2019-02-12T14:12:40.610Z,53.10
2019-02-12T14:15:13.550Z,52.70
2019-02-12T14:17:47.907Z,53.00
2019-02-12T14:20:19.859Z,53.10
2019-02-12T14:22:54.797Z,53.00
2019-02-12T14:25:28.181Z,53.00
2019-02-12T14:28:01.072Z,52.90
2019-02-12T14:30:34.222Z,52.10
2019-02-12T14:33:06.404Z,52.30
2019-02-12T14:35:38.478Z,52.20
2019-02-12T14:38:10.568Z,52.10
2019-02-12T14:40:44.018Z,52.10
2019-02-12T14:43:17.487Z,52.00
2019-02-12T14:45:49.325Z,52.10
2019-02-12T14:48:21.317Z,52.10
2019-02-12T14:50:55.143Z,52.40
2019-02-12T14:53:30.038Z,52.70
2019-02-12T14:56:02.042Z,52.30
2019-02-12T14:58:43.727Z,51.80
2019-02-12T15:01:15.734Z,51.50
2019-02-12T15:03:52.441Z,51.50
2019-02-12T15:06:24.887Z,51.30
2019-02-12T15:08:59.892Z,51.20
2019-02-12T15:11:32.131Z,51.00
2019-02-12T15:14:05.511Z,51.10
2019-02-12T15:16:38.168Z,51.30
2019-02-12T15:19:13.596Z,51.30
2019-02-12T15:21:46.555Z,51.10
2019-02-12T15:24:18.564Z,51.00
2019-02-12T15:26:50.769Z,51.00
2019-02-12T15:29:24.863Z,50.80
2019-02-12T15:31:56.949Z,49.30
2019-02-12T15:34:29.132Z,50.80
2019-02-12T15:37:01.088Z,50.20
2019-02-12T15:39:34.312Z,50.00
2019-02-12T15:42:06.342Z,49.90
2019-02-12T15:44:40.670Z,49.80
2019-02-12T15:47:13.809Z,49.80
2019-02-12T15:49:48.376Z,49.80
2019-02-12T15:52:20.830Z,49.90
2019-02-12T15:54:52.937Z,50.00
2019-02-12T15:57:27.054Z,49.40
2019-02-12T16:00:02.081Z,50.10
2019-02-12T16:02:35.904Z,50.20
2019-02-12T16:05:10.404Z,50.20
2019-02-12T16:07:45.224Z,50.70
2019-02-12T16:10:19.660Z,50.30
2019-02-12T16:12:52.689Z,50.50
2019-02-12T16:15:24.879Z,50.50
2019-02-12T16:18:02.526Z,50.60
2019-02-12T16:20:34.639Z,50.70
2019-02-12T16:23:07.038Z,50.80
2019-02-12T16:25:40.548Z,50.80
2019-02-12T16:28:12.435Z,50.90
2019-02-12T16:30:44.503Z,51.10
2019-02-12T16:33:16.476Z,51.10
2019-02-12T16:35:51.426Z,51.10
2019-02-12T16:38:25.078Z,51.20
2019-02-12T16:40:58.778Z,51.10
2019-02-12T16:43:33.774Z,52.30
2019-02-12T16:46:11.134Z,51.80
2019-02-12T16:48:43.108Z,51.60
2019-02-12T16:51:16.941Z,52.50
2019-02-12T16:53:49.704Z,52.40
2019-02-12T16:56:21.559Z,52.40
2019-02-12T16:58:54.805Z,52.40
2019-02-12T17:01:28.083Z,52.50
2019-02-12T17:04:00.043Z,53.30
2019-02-12T17:06:34.594Z,52.70
2019-02-12T17:09:07.601Z,52.80
2019-02-12T17:11:40.958Z,52.70
2019-02-12T17:14:12.788Z,53.00
2019-02-12T17:16:44.701Z,53.00
2019-02-12T17:19:16.733Z,53.00
2019-02-12T17:21:49.251Z,53.10
2019-02-12T17:24:21.300Z,53.10
2019-02-12T17:26:53.271Z,53.20
2019-02-12T17:29:26.504Z,53.30
2019-02-12T17:31:58.461Z,53.30
2019-02-12T17:34:30.714Z,53.30
2019-02-12T17:37:02.712Z,53.40
2019-02-12T17:39:34.862Z,53.50
2019-02-12T17:42:07.056Z,53.50
2019-02-12T17:44:39.083Z,53.60
2019-02-12T17:47:11.229Z,53.50
2019-02-12T17:49:43.252Z,53.70
2019-02-12T17:52:15.119Z,53.60
2019-02-12T17:54:47.089Z,53.70
2019-02-12T17:57:19.001Z,53.80
2019-02-12T17:59:53.408Z,53.80
2019-02-12T18:02:25.391Z,53.80
2019-02-12T18:04:57.443Z,53.80
2019-02-12T18:07:32.383Z,53.80
2019-02-12T18:10:04.635Z,53.80
2019-02-12T18:12:36.710Z,53.90
2019-02-12T18:15:12.990Z,53.80
2019-02-12T18:17:47.206Z,53.90
2019-02-12T18:20:26.314Z,54.00
2019-02-12T18:22:53.174Z,54.10
2019-02-12T18:25:25.167Z,54.10
2019-02-12T18:27:57.287Z,54.20
2019-02-12T18:30:29.690Z,54.40
2019-02-12T18:33:04.383Z,54.40
2019-02-12T18:35:36.325Z,54.50
2019-02-12T18:38:08.365Z,54.40
2019-02-12T18:40:43.197Z,54.40
2019-02-12T18:43:15.358Z,54.50
2019-02-12T18:45:47.612Z,54.50
2019-02-12T18:48:20.049Z,54.60
2019-02-12T18:50:52.025Z,54.50
2019-02-12T18:53:25.131Z,54.60
2019-02-12T18:55:57.527Z,54.60
2019-02-12T18:58:30.361Z,54.60
2019-02-12T19:01:03.892Z,54.80
2019-02-12T19:03:35.901Z,54.60
2019-02-12T19:06:10.481Z,54.70
2019-02-12T19:08:42.478Z,54.60
2019-02-12T19:11:14.666Z,54.80
2019-02-12T19:13:47.859Z,54.80
2019-02-12T19:16:19.917Z,54.90
2019-02-12T19:18:51.982Z,54.70
2019-02-12T19:21:23.993Z,54.80
2019-02-12T19:23:56.017Z,54.80
2019-02-12T19:26:28.130Z,54.80
2019-02-12T19:29:01.507Z,54.80
2019-02-12T19:31:35.026Z,54.90
2019-02-12T19:34:06.904Z,54.90
2019-02-12T19:36:41.292Z,54.90
2019-02-12T19:39:13.537Z,54.90
2019-02-12T19:41:45.412Z,54.90
2019-02-12T19:44:17.681Z,54.90
2019-02-12T19:46:50.094Z,54.90
2019-02-12T19:49:22.229Z,54.90
2019-02-12T19:51:54.321Z,55.00
2019-02-12T19:54:26.538Z,55.10
2019-02-12T19:56:58.671Z,55.10
2019-02-12T19:59:42.656Z,55.10
2019-02-12T20:02:21.487Z,55.00
2019-02-12T20:04:54.865Z,55.10
2019-02-12T20:07:27.386Z,55.10
2019-02-12T20:09:59.705Z,55.20
2019-02-12T20:12:31.651Z,55.10
2019-02-12T20:15:04.002Z,55.20
2019-02-12T20:17:36.083Z,55.10
2019-02-12T20:20:10.112Z,55.10
2019-02-12T20:22:42.281Z,55.20
2019-02-12T20:25:14.385Z,55.20
2019-02-12T20:27:46.303Z,55.20
2019-02-12T20:30:18.427Z,55.20
2019-02-12T20:32:50.882Z,55.20
2019-02-12T20:35:22.950Z,55.10
2019-02-12T20:37:54.856Z,55.30
2019-02-12T20:40:27.135Z,55.20
2019-02-12T20:42:59.408Z,55.20
2019-02-12T20:45:31.609Z,55.30
2019-02-12T20:48:04.020Z,55.30
2019-02-12T20:50:36.333Z,55.40
2019-02-12T20:53:08.603Z,55.20
2019-02-12T20:55:40.530Z,55.30
2019-02-12T20:58:12.477Z,55.30
2019-02-12T21:00:44.418Z,55.30
2019-02-12T21:03:16.498Z,55.30
2019-02-12T21:05:48.430Z,55.40
2019-02-12T21:08:20.313Z,55.40
2019-02-12T21:10:52.132Z,55.50
2019-02-12T21:13:24.689Z,55.50
2019-02-12T21:15:56.880Z,55.50
2019-02-12T21:18:29.017Z,55.40
2019-02-12T21:21:01.108Z,55.30
2019-02-12T21:23:33.275Z,55.40
2019-02-12T21:26:05.281Z,55.40
2019-02-12T21:28:37.217Z,55.40
2019-02-12T21:31:09.112Z,55.50
2019-02-12T21:33:41.174Z,55.40
2019-02-12T21:36:13.035Z,55.40
2019-02-12T21:38:44.924Z,55.40
2019-02-12T21:41:16.771Z,55.40
2019-02-12T21:43:48.672Z,55.30
2019-02-12T21:46:20.620Z,55.40
2019-02-12T21:48:52.639Z,55.30
2019-02-12T21:51:24.810Z,55.40
2019-02-12T21:53:56.845Z,55.40
2019-02-12T21:56:28.986Z,55.70
2019-02-12T21:59:01.027Z,55.40
2019-02-12T22:01:33.029Z,55.40
2019-02-12T22:04:05.153Z,55.50
2019-02-12T22:06:37.514Z,55.40
2019-02-12T22:09:09.442Z,55.60
2019-02-12T22:11:41.519Z,55.60
2019-02-12T22:14:14.491Z,55.70
2019-02-12T22:16:46.606Z,55.60
2019-02-12T22:19:18.562Z,55.70
2019-02-12T22:21:50.492Z,55.80
2019-02-12T22:24:22.448Z,55.90
2019-02-12T22:26:54.308Z,55.70
2019-02-12T22:29:26.435Z,55.80
2019-02-12T22:31:58.354Z,55.60
2019-02-12T22:34:30.288Z,55.60
2019-02-12T22:37:02.161Z,55.50
2019-02-12T22:39:34.127Z,55.40
2019-02-12T22:42:06.008Z,55.40
2019-02-12T22:44:37.943Z,55.40
2019-02-12T22:47:09.847Z,55.40
2019-02-12T22:49:41.643Z,55.30
2019-02-12T22:52:13.761Z,55.20
2019-02-12T22:54:45.922Z,55.20
2019-02-12T22:57:17.889Z,55.20
2019-02-12T22:59:49.781Z,55.20
2019-02-12T23:02:21.740Z,55.20
2019-02-12T23:04:53.652Z,55.10
2019-02-12T23:07:25.662Z,55.20
2019-02-12T23:09:57.916Z,55.20
2019-02-12T23:12:30.045Z,55.30
2019-02-12T23:15:01.984Z,55.20
2019-02-12T23:17:33.964Z,55.30
2019-02-12T23:20:06.121Z,54.60
2019-02-12T23:22:39.277Z,55.20
2019-02-12T23:25:11.225Z,55.60
2019-02-12T23:27:43.094Z,55.20
2019-02-12T23:30:15.084Z,55.20
2019-02-12T23:32:49.010Z,55.30
2019-02-12T23:35:20.754Z,55.30
2019-02-12T23:37:52.568Z,55.30
2019-02-12T23:40:24.533Z,55.30
2019-02-12T23:42:57.615Z,55.40
2019-02-12T23:45:29.415Z,55.40
2019-02-12T23:48:01.314Z,55.30
2019-02-12T23:50:33.251Z,55.30
2019-02-12T23:53:05.401Z,55.40
2019-02-12T23:55:37.432Z,55.30
2019-02-12T23:58:09.445Z,55.30
